createdAt,value
2018-06-09T00:00:43.023Z,101328.30
2018-06-09T00:03:10.920Z,101327.77
2018-06-09T00:05:38.943Z,101328.71
2018-06-09T00:08:06.565Z,101324.80
2018-06-09T00:10:34.213Z,101330.95
2018-06-09T00:13:01.907Z,101335.48
2018-06-09T00:15:29.883Z,101335.48
2018-06-09T00:17:57.806Z,101333.84
2018-06-09T00:20:25.452Z,101337.95
2018-06-09T00:22:53.353Z,101338.02
2018-06-09T00:25:21.896Z,101333.66
2018-06-09T00:27:50.106Z,101330.12
2018-06-09T00:30:18.073Z,101329.28
2018-06-09T00:32:45.884Z,101328.90
2018-06-09T00:35:13.514Z,101327.16
2018-06-09T00:37:41.141Z,101327.16
2018-06-09T00:40:09.254Z,101326.77
2018-06-09T00:42:36.871Z,101322.91
2018-06-09T00:45:04.808Z,101328.16
2018-06-09T00:47:32.698Z,101334.34
2018-06-09T00:50:00.657Z,101336.19
2018-06-09T00:52:28.302Z,101334.09
2018-06-09T00:54:55.970Z,101337.69
2018-06-09T00:57:23.605Z,101336.36
2018-06-09T00:59:51.201Z,101335.97
2018-06-09T01:02:19.087Z,101330.30
2018-06-09T01:04:47.293Z,101332.12
2018-06-09T01:07:15.218Z,101330.80
2018-06-09T01:09:42.883Z,101330.30
2018-06-09T01:12:10.871Z,101326.81
2018-06-09T01:14:38.502Z,101334.70
2018-06-09T01:17:06.578Z,101332.51
2018-06-09T01:19:34.198Z,101329.47
2018-06-09T01:22:01.841Z,101330.41
2018-06-09T01:24:29.629Z,101331.80
2018-06-09T01:26:57.232Z,101331.73
2018-06-09T01:29:24.872Z,101331.31
2018-06-09T01:31:52.861Z,101324.78
2018-06-09T01:34:20.557Z,101329.92
2018-06-09T01:36:49.046Z,101332.58
2018-06-09T01:39:17.377Z,101328.27
2018-06-09T01:41:45.241Z,101323.84
2018-06-09T01:44:12.820Z,101327.50
2018-06-09T01:46:40.761Z,101329.73
2018-06-09T01:49:08.720Z,101326.62
2018-06-09T01:51:36.358Z,101321.87
2018-06-09T01:54:04.457Z,101328.50
2018-06-09T01:56:32.069Z,101321.94
2018-06-09T01:59:00.293Z,101322.45
2018-06-09T02:01:28.061Z,101323.00
2018-06-09T02:03:56.049Z,101328.25
2018-06-09T02:06:24.189Z,101325.17
2018-06-09T02:08:51.852Z,101332.81
2018-06-09T02:11:19.641Z,101339.52
2018-06-09T02:13:47.885Z,101337.34
2018-06-09T02:16:15.516Z,101348.47
2018-06-09T02:18:43.132Z,101344.66
2018-06-09T02:21:11.329Z,101352.62
2018-06-09T02:23:39.107Z,101353.07
2018-06-09T02:26:06.960Z,101353.20
2018-06-09T02:28:34.596Z,101356.73
2018-06-09T02:31:02.747Z,101357.66
2018-06-09T02:33:30.377Z,101358.12
2018-06-09T02:35:58.042Z,101359.51
2018-06-09T02:38:26.039Z,101352.45
2018-06-09T02:40:53.666Z,101352.06
2018-06-09T02:43:21.633Z,101348.92
2018-06-09T02:45:49.318Z,101352.06
2018-06-09T02:48:17.187Z,101352.52
2018-06-09T02:50:44.783Z,101351.25
2018-06-09T02:53:12.426Z,101352.58
2018-06-09T02:55:40.309Z,101349.92
2018-06-09T02:58:08.216Z,101347.77
2018-06-09T03:00:36.090Z,101347.70
2018-06-09T03:03:03.835Z,101354.78
2018-06-09T03:05:31.446Z,101352.06
2018-06-09T03:07:59.658Z,101348.08
2018-06-09T03:10:27.310Z,101348.08
2018-06-09T03:12:55.155Z,101347.89
2018-06-09T03:15:23.302Z,101351.03
2018-06-09T03:17:51.375Z,101358.66
2018-06-09T03:20:19.632Z,101352.36
2018-06-09T03:22:47.848Z,101353.69
2018-06-09T03:25:15.836Z,101356.02
2018-06-09T03:27:43.828Z,101356.41
2018-06-09T03:30:11.721Z,101353.36
2018-06-09T03:32:39.960Z,101353.36
2018-06-09T03:35:08.110Z,101355.11
2018-06-09T03:37:36.296Z,101353.30
2018-06-09T03:40:03.945Z,101350.16
2018-06-09T03:42:31.917Z,101352.03
2018-06-09T03:45:00.434Z,101355.53
2018-06-09T03:47:28.394Z,101366.63
2018-06-09T03:49:56.282Z,101370.55
2018-06-09T03:52:24.244Z,101370.55
2018-06-09T03:54:51.912Z,101373.68
2018-06-09T03:57:19.874Z,101367.05
2018-06-09T03:59:47.490Z,101368.34
2018-06-09T04:02:15.420Z,101370.55
2018-06-09T04:04:43.285Z,101375.36
2018-06-09T04:07:10.951Z,101376.23
2018-06-09T04:09:39.064Z,101376.23
2018-06-09T04:12:06.980Z,101378.89
2018-06-09T04:14:35.461Z,101383.27
2018-06-09T04:17:03.134Z,101375.85
2018-06-09T04:19:30.908Z,101382.09
2018-06-09T04:21:58.667Z,101376.39
2018-06-09T04:24:26.484Z,101378.20
2018-06-09T04:26:54.411Z,101380.38
2018-06-09T04:29:22.566Z,101383.91
2018-06-09T04:31:50.774Z,101389.59
2018-06-09T04:34:18.396Z,101386.53
2018-06-09T04:36:46.057Z,101400.20
2018-06-09T04:39:14.191Z,101391.53
2018-06-09T04:41:41.830Z,101398.95
2018-06-09T04:44:09.458Z,101396.78
2018-06-09T04:46:37.614Z,101404.19
2018-06-09T04:49:05.635Z,101407.39
2018-06-09T04:51:33.838Z,101405.52
2018-06-09T04:54:01.450Z,101404.48
2018-06-09T04:56:29.539Z,101407.53
2018-06-09T04:58:57.470Z,101404.48
2018-06-09T05:01:25.337Z,101407.02
2018-06-09T05:03:53.013Z,101407.92
2018-06-09T05:06:20.911Z,101416.30
2018-06-09T05:08:48.784Z,101418.14
2018-06-09T05:11:16.416Z,101422.39
2018-06-09T05:13:44.302Z,101422.00
2018-06-09T05:16:12.248Z,101425.37
2018-06-09T05:18:40.197Z,101426.24
2018-06-09T05:21:07.893Z,101419.06
2018-06-09T05:23:35.535Z,101412.75
2018-06-09T05:26:03.509Z,101409.19
2018-06-09T05:28:31.511Z,101405.66
2018-06-09T05:30:59.125Z,101404.34
2018-06-09T05:33:27.485Z,101399.97
2018-06-09T05:35:55.118Z,101400.91
2018-06-09T05:38:22.757Z,101400.81
2018-06-09T05:40:51.137Z,101408.31
2018-06-09T05:43:19.042Z,101399.42
2018-06-09T05:45:47.342Z,101397.57
2018-06-09T05:48:14.985Z,101402.39
2018-06-09T05:50:42.614Z,101397.09
2018-06-09T05:53:10.776Z,101395.70
2018-06-09T05:55:38.464Z,101392.91
2018-06-09T05:58:06.279Z,101398.22
2018-06-09T06:00:34.669Z,101398.22
2018-06-09T06:03:02.568Z,101396.34
2018-06-09T06:05:30.767Z,101402.46
2018-06-09T06:07:58.405Z,101396.22
2018-06-09T06:10:26.032Z,101393.56
2018-06-09T06:12:53.688Z,101403.66
2018-06-09T06:15:21.410Z,101405.83
2018-06-09T06:17:49.046Z,101401.91
2018-06-09T06:20:16.859Z,101407.22
2018-06-09T06:22:45.103Z,101412.95
2018-06-09T06:25:13.256Z,101410.36
2018-06-09T06:27:41.234Z,101412.95
2018-06-09T06:30:09.191Z,101413.86
2018-06-09T06:32:36.820Z,101411.62
2018-06-09T06:35:04.677Z,101405.83
2018-06-09T06:37:32.576Z,101414.18
2018-06-09T06:40:00.781Z,101411.08
2018-06-09T06:42:29.437Z,101410.69
2018-06-09T06:44:57.378Z,101408.03
2018-06-09T06:47:25.006Z,101407.55
2018-06-09T06:49:52.669Z,101413.73
2018-06-09T06:52:20.300Z,101426.06
2018-06-09T06:54:47.931Z,101423.02
2018-06-09T06:57:15.561Z,101421.69
2018-06-09T06:59:43.161Z,101421.69
2018-06-09T07:02:11.232Z,101423.95
2018-06-09T07:04:39.144Z,101422.14
2018-06-09T07:07:07.049Z,101428.72
2018-06-09T07:09:35.724Z,101427.88
2018-06-09T07:12:03.914Z,101426.06
2018-06-09T07:14:32.078Z,101427.78
2018-06-09T07:16:59.950Z,101435.23
2018-06-09T07:19:27.784Z,101439.66
2018-06-09T07:21:55.810Z,101436.94
2018-06-09T07:24:23.692Z,101436.81
2018-06-09T07:26:51.694Z,101437.66
2018-06-09T07:29:19.896Z,101440.80
2018-06-09T07:31:47.855Z,101438.92
2018-06-09T07:34:15.809Z,101439.34
2018-06-09T07:36:43.450Z,101442.84
2018-06-09T07:39:11.777Z,101440.12
2018-06-09T07:41:39.675Z,101436.13
2018-06-09T07:44:07.943Z,101432.86
2018-06-09T07:46:35.577Z,101436.78
2018-06-09T07:49:03.431Z,101429.63
2018-06-09T07:51:31.869Z,101428.69
2018-06-09T07:53:59.476Z,101433.92
2018-06-09T07:56:27.477Z,101443.16
2018-06-09T07:58:55.408Z,101437.68
2018-06-09T08:01:23.376Z,101441.53
2018-06-09T08:03:51.317Z,101438.36
2018-06-09T08:06:19.195Z,101438.61
2018-06-09T08:08:47.471Z,101443.86
2018-06-09T08:11:15.388Z,101438.02
2018-06-09T08:13:43.919Z,101438.48
2018-06-09T08:16:11.563Z,101433.97
2018-06-09T08:18:39.543Z,101437.47
2018-06-09T08:21:07.500Z,101442.72
2018-06-09T08:23:35.171Z,101442.16
2018-06-09T08:26:03.118Z,101432.73
2018-06-09T08:28:30.742Z,101429.13
2018-06-09T08:30:59.599Z,101428.22
2018-06-09T08:33:27.780Z,101430.88
2018-06-09T08:35:55.763Z,101436.97
2018-06-09T08:38:23.450Z,101439.17
2018-06-09T08:40:51.076Z,101435.50
2018-06-09T08:43:18.953Z,101437.61
2018-06-09T08:45:46.883Z,101440.66
2018-06-09T08:48:14.540Z,101440.58
2018-06-09T08:50:42.484Z,101434.26
2018-06-09T08:53:10.699Z,101435.91
2018-06-09T08:55:38.840Z,101434.51
2018-06-09T08:58:06.824Z,101437.03
2018-06-09T09:00:34.859Z,101434.69
2018-06-09T09:03:02.482Z,101435.95
2018-06-09T09:05:30.130Z,101436.72
2018-06-09T09:07:58.263Z,101441.13
2018-06-09T09:10:26.180Z,101444.17
2018-06-09T09:12:53.799Z,101445.50
2018-06-09T09:15:22.085Z,101448.61
2018-06-09T09:17:50.055Z,101445.05
2018-06-09T09:20:18.058Z,101443.61
2018-06-09T09:22:46.049Z,101444.42
2018-06-09T09:25:14.312Z,101442.84
2018-06-09T09:27:41.982Z,101436.94
2018-06-09T09:30:09.855Z,101437.60
2018-06-09T09:32:37.869Z,101429.87
2018-06-09T09:35:06.098Z,101432.59
2018-06-09T09:37:34.062Z,101437.70
2018-06-09T09:40:01.720Z,101433.47
2018-06-09T09:42:29.337Z,101427.55
2018-06-09T09:44:56.989Z,101431.70
2018-06-09T09:47:25.159Z,101422.14
2018-06-09T09:49:53.125Z,101428.58
2018-06-09T09:52:20.753Z,101427.06
2018-06-09T09:54:48.868Z,101429.97
2018-06-09T09:57:16.843Z,101433.73
2018-06-09T09:59:44.765Z,101436.63
2018-06-09T10:02:12.754Z,101435.88
2018-06-09T10:04:40.472Z,101436.50
2018-06-09T10:07:08.652Z,101433.20
2018-06-09T10:09:36.320Z,101431.64
2018-06-09T10:12:03.964Z,101433.52
2018-06-09T10:14:31.946Z,101435.15
2018-06-09T10:16:59.608Z,101434.20
2018-06-09T10:19:27.810Z,101430.59
2018-06-09T10:21:55.482Z,101432.23
2018-06-09T10:24:23.429Z,101429.98
2018-06-09T10:26:51.485Z,101428.95
2018-06-09T10:29:19.438Z,101426.67
2018-06-09T10:31:47.335Z,101428.88
2018-06-09T10:34:15.003Z,101425.72
2018-06-09T10:36:42.968Z,101426.59
2018-06-09T10:39:10.618Z,101425.27
2018-06-09T10:41:38.593Z,101422.91
2018-06-09T10:44:06.257Z,101423.29
2018-06-09T10:46:33.921Z,101421.95
2018-06-09T10:49:01.595Z,101425.95
2018-06-09T10:51:29.767Z,101425.95
2018-06-09T10:53:57.924Z,101420.70
2018-06-09T10:56:25.594Z,101423.44
2018-06-09T10:58:53.477Z,101419.06
2018-06-09T11:01:21.147Z,101420.97
2018-06-09T11:03:48.786Z,101416.97
2018-06-09T11:06:16.482Z,101418.30
2018-06-09T11:08:44.641Z,101411.64
2018-06-09T11:11:12.724Z,101407.47
2018-06-09T11:13:40.353Z,101414.92
2018-06-09T11:16:07.986Z,101410.92
2018-06-09T11:18:35.943Z,101413.59
2018-06-09T11:21:04.102Z,101410.92
2018-06-09T11:23:32.261Z,101406.94
2018-06-09T11:25:59.894Z,101401.15
2018-06-09T11:28:27.545Z,101405.59
2018-06-09T11:30:55.252Z,101399.81
2018-06-09T11:33:23.171Z,101405.52
2018-06-09T11:35:50.772Z,101401.53
2018-06-09T11:38:19.046Z,101397.91
2018-06-09T11:40:46.703Z,101397.84
2018-06-09T11:43:14.329Z,101390.69
2018-06-09T11:45:42.224Z,101389.70
2018-06-09T11:48:09.837Z,101390.53
2018-06-09T11:50:37.493Z,101389.13
2018-06-09T11:53:05.403Z,101383.80
2018-06-09T11:55:33.375Z,101386.46
2018-06-09T11:58:01.232Z,101386.84
2018-06-09T12:00:28.880Z,101381.05
2018-06-09T12:02:56.521Z,101383.23
2018-06-09T12:05:24.234Z,101382.47
2018-06-09T12:07:51.875Z,101383.80
2018-06-09T12:10:19.515Z,101378.93
2018-06-09T12:12:47.269Z,101377.71
2018-06-09T12:15:15.349Z,101382.92
2018-06-09T12:17:43.243Z,101380.67
2018-06-09T12:20:11.233Z,101376.56
2018-06-09T12:22:38.890Z,101375.95
2018-06-09T12:25:06.575Z,101372.64
2018-06-09T12:27:34.198Z,101375.07
2018-06-09T12:30:02.165Z,101374.29
2018-06-09T12:32:30.198Z,101364.98
2018-06-09T12:34:58.102Z,101368.09
2018-06-09T12:37:25.975Z,101369.10
2018-06-09T12:39:53.925Z,101365.20
2018-06-09T12:42:21.565Z,101364.09
2018-06-09T12:44:49.500Z,101357.26
2018-06-09T12:47:17.192Z,101352.69
2018-06-09T12:49:45.102Z,101354.81
2018-06-09T12:52:13.061Z,101344.61
2018-06-09T12:54:40.704Z,101349.77
2018-06-09T12:57:08.738Z,101353.20
2018-06-09T12:59:36.969Z,101345.91
2018-06-09T13:02:04.938Z,101340.95
2018-06-09T13:04:32.605Z,101342.11
2018-06-09T13:07:00.599Z,101335.45
2018-06-09T13:09:29.197Z,101339.25
2018-06-09T13:11:56.841Z,101342.56
2018-06-09T13:14:24.477Z,101332.57
2018-06-09T13:16:52.150Z,101335.45
2018-06-09T13:19:19.803Z,101326.69
2018-06-09T13:21:47.769Z,101323.94
2018-06-09T13:24:16.353Z,101327.36
2018-06-09T13:26:44.257Z,101321.86
2018-06-09T13:29:11.906Z,101322.23
2018-06-09T13:31:39.948Z,101315.94
2018-06-09T13:34:07.593Z,101318.44
2018-06-09T13:36:35.470Z,101319.68
2018-06-09T13:39:04.214Z,101315.02
2018-06-09T13:41:32.174Z,101310.25
2018-06-09T13:44:00.046Z,101312.08
2018-06-09T13:46:27.710Z,101311.55
2018-06-09T13:48:55.392Z,101315.66
2018-06-09T13:51:23.049Z,101302.23
2018-06-09T13:53:50.890Z,101310.44
2018-06-09T13:56:18.821Z,101299.86
2018-06-09T13:58:47.093Z,101297.39
2018-06-09T14:01:14.729Z,101299.30
2018-06-09T14:03:42.374Z,101303.49
2018-06-09T14:06:10.431Z,101293.84
2018-06-09T14:08:38.392Z,101295.37
2018-06-09T14:11:06.080Z,101292.52
2018-06-09T14:13:33.855Z,101291.84
2018-06-09T14:16:01.820Z,101288.33
2018-06-09T14:18:29.693Z,101288.33
2018-06-09T14:20:58.110Z,101290.97
2018-06-09T14:23:25.736Z,101295.76
2018-06-09T14:25:53.382Z,101287.98
2018-06-09T14:28:21.387Z,101285.55
2018-06-09T14:30:49.085Z,101293.71
2018-06-09T14:33:17.025Z,101292.55
2018-06-09T14:35:44.691Z,101288.16
2018-06-09T14:38:12.597Z,101280.98
2018-06-09T14:40:40.472Z,101285.00
2018-06-09T14:43:08.105Z,101278.59
2018-06-09T14:45:36.074Z,101272.41
2018-06-09T14:48:04.326Z,101277.63
2018-06-09T14:50:31.982Z,101277.34
2018-06-09T14:52:59.592Z,101273.68
2018-06-09T14:55:28.050Z,101270.29
2018-06-09T14:57:56.197Z,101273.50
2018-06-09T15:00:24.043Z,101272.02
2018-06-09T15:02:52.043Z,101271.75
2018-06-09T15:05:20.008Z,101275.13
2018-06-09T15:07:47.919Z,101264.13
2018-06-09T15:10:15.904Z,101265.88
2018-06-09T15:12:43.808Z,101257.48
2018-06-09T15:15:11.716Z,101252.38
2018-06-09T15:17:39.609Z,101258.56
2018-06-09T15:20:07.558Z,101256.27
2018-06-09T15:22:35.241Z,101253.09
2018-06-09T15:25:03.237Z,101254.44
2018-06-09T15:27:31.284Z,101256.73
2018-06-09T15:29:59.185Z,101246.64
2018-06-09T15:32:26.796Z,101247.47
2018-06-09T15:34:54.949Z,101245.33
2018-06-09T15:37:22.833Z,101246.09
2018-06-09T15:39:50.788Z,101239.47
2018-06-09T15:42:18.454Z,101232.80
2018-06-09T15:44:46.388Z,101233.70
2018-06-09T15:47:14.046Z,101235.89
2018-06-09T15:49:41.772Z,101234.75
2018-06-09T15:52:09.384Z,101234.75
2018-06-09T15:54:37.360Z,101229.02
2018-06-09T15:57:05.296Z,101233.39
2018-06-09T15:59:33.242Z,101225.12
2018-06-09T16:02:00.916Z,101220.98
2018-06-09T16:04:28.566Z,101222.61
2018-06-09T16:06:56.682Z,101225.19
2018-06-09T16:09:24.838Z,101222.09
2018-06-09T16:11:52.502Z,101226.18
2018-06-09T16:14:20.164Z,101213.69
2018-06-09T16:16:47.795Z,101215.59
2018-06-09T16:19:15.536Z,101208.09
2018-06-09T16:21:43.396Z,101208.41
2018-06-09T16:24:11.290Z,101211.13
2018-06-09T16:26:39.599Z,101211.73
2018-06-09T16:29:07.271Z,101212.61
2018-06-09T16:31:34.905Z,101213.40
2018-06-09T16:34:02.654Z,101215.39
2018-06-09T16:36:30.841Z,101211.61
2018-06-09T16:38:58.449Z,101210.27
2018-06-09T16:41:26.112Z,101214.28
2018-06-09T16:43:54.049Z,101222.86
2018-06-09T16:46:21.649Z,101219.91
2018-06-09T16:48:49.312Z,101216.69
2018-06-09T16:51:16.954Z,101220.79
2018-06-09T16:53:44.843Z,101225.95
2018-06-09T16:56:12.593Z,101222.07
2018-06-09T16:58:40.528Z,101225.61
2018-06-09T17:01:08.152Z,101226.75
2018-06-09T17:03:36.183Z,101225.23
2018-06-09T17:06:03.806Z,101225.04
2018-06-09T17:08:32.526Z,101226.55
2018-06-09T17:11:00.414Z,101230.28
2018-06-09T17:13:28.190Z,101225.99
2018-06-09T17:15:55.968Z,101223.04
2018-06-09T17:18:24.025Z,101225.42
2018-06-09T17:20:52.070Z,101217.57
2018-06-09T17:23:19.759Z,101222.03
2018-06-09T17:25:47.832Z,101225.76
2018-06-09T17:28:15.653Z,101220.51
2018-06-09T17:30:43.436Z,101218.80
2018-06-09T17:33:11.488Z,101216.63
2018-06-09T17:35:39.511Z,101217.97
2018-06-09T17:38:07.222Z,101215.10
2018-06-09T17:40:34.912Z,101224.16
2018-06-09T17:43:02.920Z,101225.20
2018-06-09T17:45:30.621Z,101219.00
2018-06-09T17:47:58.673Z,101213.19
2018-06-09T17:50:26.485Z,101218.83
2018-06-09T17:52:54.659Z,101217.41
2018-06-09T17:55:22.442Z,101215.32
2018-06-09T17:57:50.531Z,101225.95
2018-06-09T18:00:18.622Z,101213.77
2018-06-09T18:02:46.361Z,101215.75
2018-06-09T18:05:14.609Z,101223.09
2018-06-09T18:07:42.624Z,101224.81
2018-06-09T18:10:10.335Z,101226.41
2018-06-09T18:12:38.532Z,101223.92
2018-06-09T18:15:06.709Z,101228.14
2018-06-09T18:17:34.425Z,101230.52
2018-06-09T18:20:02.523Z,101226.23
2018-06-09T18:22:30.710Z,101221.91
2018-06-09T18:24:58.731Z,101225.06
2018-06-09T18:27:26.487Z,101219.45
2018-06-09T18:29:54.568Z,101222.29
2018-06-09T18:32:22.373Z,101230.88
2018-06-09T18:34:50.076Z,101222.76
2018-06-09T18:37:18.825Z,101230.90
2018-06-09T18:39:46.981Z,101233.86
2018-06-09T18:42:14.756Z,101237.65
2018-06-09T18:44:43.082Z,101236.95
2018-06-09T18:47:10.843Z,101239.82
2018-06-09T18:49:38.699Z,101243.20
2018-06-09T18:52:06.669Z,101239.41
2018-06-09T18:54:34.368Z,101236.04
2018-06-09T18:57:02.357Z,101241.58
2018-06-09T18:59:30.122Z,101243.16
2018-06-09T19:01:58.231Z,101239.36
2018-06-09T19:04:26.256Z,101248.85
2018-06-09T19:06:54.104Z,101243.77
2018-06-09T19:09:22.012Z,101245.30
2018-06-09T19:11:49.802Z,101241.94
2018-06-09T19:14:17.521Z,101245.26
2018-06-09T19:16:45.991Z,101241.89
2018-06-09T19:19:13.760Z,101242.92
2018-06-09T19:21:41.523Z,101249.66
2018-06-09T19:24:09.304Z,101246.70
2018-06-09T19:26:36.994Z,101249.07
2018-06-09T19:29:04.749Z,101250.95
2018-06-09T19:31:32.452Z,101251.98
2018-06-09T19:34:00.497Z,101248.15
2018-06-09T19:36:28.193Z,101250.05
2018-06-09T19:38:56.091Z,101244.89
2018-06-09T19:41:23.811Z,101251.17
2018-06-09T19:43:51.545Z,101250.00
2018-06-09T19:46:20.154Z,101251.91
2018-06-09T19:48:47.926Z,101253.31
2018-06-09T19:51:15.664Z,101256.06
2018-06-09T19:53:43.976Z,101259.29
2018-06-09T19:56:12.121Z,101255.84
2018-06-09T19:58:39.965Z,101258.13
2018-06-09T20:01:07.670Z,101258.20
2018-06-09T20:03:35.616Z,101259.23
2018-06-09T20:06:03.358Z,101257.52
2018-06-09T20:08:31.193Z,101255.39
2018-06-09T20:10:59.504Z,101262.62
2018-06-09T20:13:27.230Z,101262.24
2018-06-09T20:15:54.965Z,101258.33
2018-06-09T20:18:23.122Z,101257.61
2018-06-09T20:20:51.022Z,101271.88
2018-06-09T20:23:19.008Z,101269.29
2018-06-09T20:25:46.765Z,101272.98
2018-06-09T20:28:14.519Z,101270.47
2018-06-09T20:30:42.222Z,101273.13
2018-06-09T20:33:09.914Z,101277.54
2018-06-09T20:35:37.977Z,101270.89
2018-06-09T20:38:05.679Z,101273.97
2018-06-09T20:40:33.520Z,101273.67
2018-06-09T20:43:02.026Z,101277.28
2018-06-09T20:45:30.099Z,101272.11
2018-06-09T20:47:57.916Z,101282.38
2018-06-09T20:50:25.615Z,101268.69
2018-06-09T20:52:53.309Z,101261.63
2018-06-09T20:55:21.341Z,101270.56
2018-06-09T20:57:49.999Z,101271.13
2018-06-09T21:00:17.753Z,101276.98
2018-06-09T21:02:45.486Z,101276.14
2018-06-09T21:05:13.526Z,101278.81
2018-06-09T21:07:41.548Z,101281.16
2018-06-09T21:10:09.381Z,101286.06
2018-06-09T21:12:37.412Z,101271.05
2018-06-09T21:15:05.514Z,101284.92
2018-06-09T21:17:33.475Z,101283.75
2018-06-09T21:20:01.379Z,101284.69
2018-06-09T21:22:29.379Z,101282.98
2018-06-09T21:24:57.314Z,101285.23
2018-06-09T21:27:33.305Z,101283.44
2018-06-09T21:30:05.810Z,101287.96
2018-06-09T21:32:39.280Z,101279.14
2018-06-09T21:35:23.710Z,101275.31
2018-06-09T21:37:56.041Z,101279.45
2018-06-09T21:40:23.963Z,101278.12
2018-06-09T21:42:57.350Z,101274.23
2018-06-09T21:45:30.522Z,101273.75
2018-06-09T21:47:58.490Z,101270.70
2018-06-09T21:50:26.818Z,101267.25
2018-06-09T21:52:54.675Z,101264.59
2018-06-09T21:55:22.280Z,101265.08
2018-06-09T21:57:50.599Z,101269.14
2018-06-09T22:00:18.204Z,101274.92
2018-06-09T22:02:46.160Z,101279.40
2018-06-09T22:05:13.830Z,101279.93
2018-06-09T22:07:41.430Z,101284.00
2018-06-09T22:10:09.333Z,101280.11
2018-06-09T22:12:36.998Z,101274.37
2018-06-09T22:15:05.028Z,101270.39
2018-06-09T22:17:32.934Z,101264.16
2018-06-09T22:20:00.581Z,101264.92
2018-06-09T22:22:28.495Z,101256.56
2018-06-09T22:24:56.453Z,101257.66
2018-06-09T22:27:24.073Z,101262.67
2018-06-09T22:29:51.681Z,101261.03
2018-06-09T22:32:19.674Z,101254.08
2018-06-09T22:34:47.654Z,101262.13
2018-06-09T22:37:15.623Z,101260.42
2018-06-09T22:39:43.285Z,101263.58
2018-06-09T22:42:10.906Z,101253.89
2018-06-09T22:44:38.821Z,101250.84
2018-06-09T22:47:06.714Z,101241.92
2018-06-09T22:49:34.309Z,101240.59
2018-06-09T22:52:02.488Z,101237.63
2018-06-09T22:54:30.496Z,101237.14
2018-06-09T22:56:58.419Z,101226.69
2018-06-09T22:59:26.186Z,101229.34
2018-06-09T23:01:54.076Z,101213.86
2018-06-09T23:04:21.955Z,101209.94
2018-06-09T23:06:50.509Z,101213.17
2018-06-09T23:09:18.405Z,101213.55
2018-06-09T23:11:46.226Z,101213.55
2018-06-09T23:14:14.194Z,101206.98
2018-06-09T23:16:42.148Z,101201.28
2018-06-09T23:19:10.497Z,101202.53
2018-06-09T23:21:39.010Z,101203.86
2018-06-09T23:24:06.978Z,101198.93
2018-06-09T23:26:34.991Z,101193.77
2018-06-09T23:29:02.837Z,101187.61
2018-06-09T23:31:30.775Z,101186.81
2018-06-09T23:33:58.853Z,101185.10
2018-06-09T23:36:26.716Z,101181.19
2018-06-09T23:38:54.654Z,101175.04
2018-06-09T23:41:23.147Z,101172.84
2018-06-09T23:43:51.034Z,101173.78
2018-06-09T23:46:18.930Z,101169.00
2018-06-09T23:48:47.221Z,101168.62
2018-06-09T23:51:15.142Z,101160.72
2018-06-09T23:53:42.732Z,101153.77
2018-06-09T23:56:10.385Z,101153.77
2018-06-09T23:58:38.298Z,101150.73
